createdAt,value
2022-12-25T00:01:23.899Z,11.90
2022-12-25T00:03:51.656Z,11.90
2022-12-25T00:06:19.167Z,11.90
2022-12-25T00:08:46.042Z,11.90
2022-12-25T00:11:16.002Z,11.90
2022-12-25T00:13:42.947Z,11.80
2022-12-25T00:16:15.773Z,11.90
2022-12-25T00:18:43.094Z,11.80
2022-12-25T00:21:11.054Z,11.80
2022-12-25T00:23:39.789Z,11.80
2022-12-25T00:26:09.466Z,11.80
2022-12-25T00:28:36.283Z,11.80
2022-12-25T00:31:15.068Z,11.90
2022-12-25T00:33:44.697Z,11.90
2022-12-25T00:36:13.269Z,12.00
2022-12-25T00:38:41.210Z,12.00
2022-12-25T00:41:11.155Z,12.00
2022-12-25T00:43:38.688Z,12.00
2022-12-25T00:46:07.062Z,12.00
2022-12-25T00:48:35.211Z,12.00
2022-12-25T00:51:08.196Z,11.90
2022-12-25T00:53:35.280Z,12.00
2022-12-25T00:56:05.312Z,12.00
2022-12-25T00:58:33.488Z,12.00
2022-12-25T01:01:00.437Z,12.00
2022-12-25T01:03:27.839Z,12.00
2022-12-25T01:06:07.238Z,12.00
2022-12-25T01:08:38.828Z,12.10
2022-12-25T01:11:08.242Z,12.10
2022-12-25T01:13:37.234Z,12.10
2022-12-25T01:16:11.671Z,12.10
2022-12-25T01:18:39.254Z,12.20
2022-12-25T01:21:16.200Z,12.20
2022-12-25T01:23:44.433Z,12.20
2022-12-25T01:26:13.306Z,12.20
2022-12-25T01:28:40.257Z,12.20
2022-12-25T01:31:14.145Z,12.20
2022-12-25T01:33:42.657Z,12.10
2022-12-25T01:36:24.124Z,12.10
2022-12-25T01:38:52.569Z,12.10
2022-12-25T01:41:21.429Z,12.10
2022-12-25T01:44:01.544Z,12.20
2022-12-25T01:46:29.490Z,12.10
2022-12-25T01:49:00.050Z,12.20
2022-12-25T01:51:31.744Z,12.10
2022-12-25T01:54:02.430Z,12.20
2022-12-25T01:56:30.406Z,12.20
2022-12-25T01:58:58.315Z,12.20
2022-12-25T02:01:25.502Z,12.20
2022-12-25T02:03:59.532Z,12.30
2022-12-25T02:06:30.719Z,12.20
2022-12-25T02:08:59.425Z,12.20
2022-12-25T02:11:44.734Z,12.30
2022-12-25T02:14:11.789Z,12.30
2022-12-25T02:16:56.775Z,12.30
2022-12-25T02:19:46.994Z,12.40
2022-12-25T02:22:32.389Z,12.30
2022-12-25T02:25:36.183Z,12.40
2022-12-25T02:28:18.542Z,12.40
2022-12-25T02:30:53.873Z,12.40
2022-12-25T02:34:01.050Z,12.40
2022-12-25T02:36:39.254Z,12.40
2022-12-25T02:39:51.162Z,12.40
2022-12-25T02:42:55.313Z,12.40
2022-12-25T02:46:09.787Z,12.40
2022-12-25T02:49:02.448Z,12.40
2022-12-25T02:51:51.816Z,12.40
2022-12-25T02:54:44.242Z,12.40
2022-12-25T02:57:33.416Z,12.50
2022-12-25T03:00:20.760Z,12.50
2022-12-25T03:03:08.001Z,12.50
2022-12-25T03:05:57.293Z,12.50
2022-12-25T03:08:38.751Z,12.50
2022-12-25T03:11:27.836Z,12.50
2022-12-25T03:14:19.372Z,12.50
2022-12-25T03:16:50.656Z,12.40
2022-12-25T03:19:38.044Z,12.40
2022-12-25T03:22:25.731Z,12.40
2022-12-25T03:25:10.942Z,12.40
2022-12-25T03:27:39.532Z,12.40
2022-12-25T03:30:26.041Z,12.40
2022-12-25T03:33:43.754Z,12.40
2022-12-25T03:36:28.556Z,12.40
2022-12-25T03:39:23.739Z,12.40
2022-12-25T03:42:16.318Z,12.30
2022-12-25T03:45:28.162Z,12.40
2022-12-25T03:48:15.793Z,12.40
2022-12-25T03:51:11.632Z,12.30
2022-12-25T03:54:14.615Z,12.40
2022-12-25T03:57:01.693Z,12.30
2022-12-25T03:59:47.556Z,12.30
2022-12-25T04:02:33.038Z,12.40
2022-12-25T04:05:18.423Z,12.40
2022-12-25T04:08:03.777Z,12.40
2022-12-25T04:10:49.239Z,12.40
2022-12-25T04:13:34.982Z,12.40
2022-12-25T04:16:20.553Z,12.40
2022-12-25T04:19:06.101Z,12.40
2022-12-25T04:21:51.673Z,12.40
2022-12-25T04:24:37.273Z,12.40
2022-12-25T04:27:22.642Z,12.40
2022-12-25T04:30:07.888Z,12.40
2022-12-25T04:32:53.451Z,12.40
2022-12-25T04:35:38.812Z,12.30
2022-12-25T04:38:05.655Z,12.30
2022-12-25T04:40:33.008Z,12.30
2022-12-25T04:42:59.802Z,12.30
2022-12-25T04:45:26.753Z,12.30
2022-12-25T04:47:53.591Z,12.30
2022-12-25T04:50:20.362Z,12.40
2022-12-25T04:52:47.210Z,12.40
2022-12-25T04:55:14.095Z,12.40
2022-12-25T04:57:40.892Z,12.40
2022-12-25T05:00:08.380Z,12.40
2022-12-25T05:02:35.410Z,12.40
2022-12-25T05:05:02.620Z,12.40
2022-12-25T05:07:29.482Z,12.40
2022-12-25T05:09:56.451Z,12.40
2022-12-25T05:12:23.298Z,12.40
2022-12-25T05:14:50.158Z,12.50
2022-12-25T05:17:16.914Z,12.40
2022-12-25T05:19:43.656Z,12.30
2022-12-25T05:22:10.549Z,12.30
2022-12-25T05:24:37.365Z,12.40
2022-12-25T05:27:04.163Z,12.40
2022-12-25T05:29:31.098Z,12.40
2022-12-25T05:31:57.959Z,12.30
2022-12-25T05:34:24.956Z,12.40
2022-12-25T05:36:51.770Z,12.40
2022-12-25T05:39:18.669Z,12.40
2022-12-25T05:41:45.453Z,12.30
2022-12-25T05:44:12.244Z,12.30
2022-12-25T05:46:39.116Z,12.30
2022-12-25T05:49:06.124Z,12.30
2022-12-25T05:51:33.099Z,12.40
2022-12-25T05:53:59.972Z,12.30
2022-12-25T05:56:27.041Z,12.30
2022-12-25T05:58:54.192Z,12.30
2022-12-25T06:01:23.679Z,12.20
2022-12-25T06:03:50.703Z,12.20
2022-12-25T06:06:17.633Z,12.20
2022-12-25T06:08:44.620Z,12.10
2022-12-25T06:11:13.509Z,12.10
2022-12-25T06:13:40.572Z,12.10
2022-12-25T06:16:09.703Z,12.10
2022-12-25T06:18:38.570Z,12.00
2022-12-25T06:21:10.344Z,12.00
2022-12-25T06:23:38.264Z,12.00
2022-12-25T06:26:11.222Z,12.00
2022-12-25T06:28:38.272Z,12.00
2022-12-25T06:31:08.573Z,11.90
2022-12-25T06:33:35.950Z,11.90
2022-12-25T06:36:14.622Z,11.90
2022-12-25T06:38:41.849Z,11.90
2022-12-25T06:41:12.882Z,11.80
2022-12-25T06:43:39.740Z,11.80
2022-12-25T06:46:09.868Z,11.80
2022-12-25T06:48:42.240Z,11.80
2022-12-25T06:51:08.979Z,11.70
2022-12-25T06:53:40.490Z,11.70
2022-12-25T06:56:11.045Z,11.60
2022-12-25T06:58:37.807Z,11.60
2022-12-25T07:01:19.077Z,11.60
2022-12-25T07:03:47.368Z,11.60
2022-12-25T07:06:15.159Z,11.60
2022-12-25T07:08:41.955Z,11.60
2022-12-25T07:11:08.990Z,11.60
2022-12-25T07:13:35.885Z,11.70
2022-12-25T07:16:04.995Z,11.60
2022-12-25T07:18:32.321Z,11.60
2022-12-25T07:21:00.344Z,11.50
2022-12-25T07:23:27.406Z,11.50
2022-12-25T07:26:02.299Z,11.50
2022-12-25T07:28:29.902Z,11.40
2022-12-25T07:31:04.896Z,11.40
2022-12-25T07:33:32.003Z,11.40
2022-12-25T07:35:58.870Z,11.40
2022-12-25T07:38:26.104Z,11.30
2022-12-25T07:40:53.305Z,11.30
2022-12-25T07:43:21.095Z,11.30
2022-12-25T07:45:48.133Z,11.20
2022-12-25T07:48:16.925Z,11.10
2022-12-25T07:50:44.000Z,11.10
2022-12-25T07:53:15.054Z,11.10
2022-12-25T07:55:41.837Z,11.20
2022-12-25T07:58:08.625Z,11.20
2022-12-25T08:00:35.455Z,11.10
2022-12-25T08:03:02.470Z,11.10
2022-12-25T08:05:29.534Z,11.10
2022-12-25T08:07:57.977Z,11.10
2022-12-25T08:10:25.355Z,11.10
2022-12-25T08:12:55.323Z,11.30
2022-12-25T08:15:22.096Z,11.20
2022-12-25T08:17:48.880Z,11.30
2022-12-25T08:20:15.765Z,11.20
2022-12-25T08:22:42.587Z,11.20
2022-12-25T08:25:09.841Z,11.30
2022-12-25T08:27:36.637Z,11.20
2022-12-25T08:30:04.360Z,11.30
2022-12-25T08:32:33.939Z,11.20
2022-12-25T08:35:00.711Z,11.20
2022-12-25T08:37:29.987Z,11.20
2022-12-25T08:39:56.827Z,11.30
2022-12-25T08:42:24.905Z,11.40
2022-12-25T08:44:51.727Z,11.30
2022-12-25T08:47:18.751Z,11.30
2022-12-25T08:49:45.599Z,11.40
2022-12-25T08:52:12.871Z,11.40
2022-12-25T08:54:39.673Z,11.40
2022-12-25T08:57:06.486Z,11.40
2022-12-25T08:59:33.289Z,11.40
2022-12-25T09:02:00.174Z,11.40
2022-12-25T09:04:27.170Z,11.40
2022-12-25T09:06:53.990Z,11.40
2022-12-25T09:09:20.727Z,11.40
2022-12-25T09:11:49.289Z,11.40
2022-12-25T09:14:16.068Z,11.40
2022-12-25T09:16:42.820Z,11.40
2022-12-25T09:19:09.616Z,11.40
2022-12-25T09:21:39.701Z,11.40
2022-12-25T09:24:06.729Z,11.40
2022-12-25T09:26:33.455Z,11.40
2022-12-25T09:29:00.220Z,11.40
2022-12-25T09:31:27.225Z,11.40
2022-12-25T09:33:58.218Z,11.50
2022-12-25T09:36:25.803Z,11.50
2022-12-25T09:38:52.851Z,11.50
2022-12-25T09:41:37.858Z,11.50
2022-12-25T09:44:10.903Z,11.60
2022-12-25T09:46:57.562Z,11.60
2022-12-25T09:49:36.039Z,11.60
2022-12-25T09:52:11.956Z,11.60
2022-12-25T09:54:58.048Z,11.60
2022-12-25T09:57:26.348Z,11.60
2022-12-25T09:59:56.076Z,11.70
2022-12-25T10:02:29.046Z,11.70
2022-12-25T10:05:21.123Z,11.80
2022-12-25T10:07:53.122Z,11.80
2022-12-25T10:10:42.878Z,11.80
2022-12-25T10:13:44.927Z,11.80
2022-12-25T10:16:36.084Z,11.90
2022-12-25T10:19:17.714Z,11.90
2022-12-25T10:21:45.858Z,12.00
2022-12-25T10:24:28.138Z,12.00
2022-12-25T10:26:56.570Z,12.00
2022-12-25T10:29:26.064Z,12.10
2022-12-25T10:31:55.435Z,12.20
2022-12-25T10:34:23.324Z,12.20
2022-12-25T10:36:51.129Z,12.30
2022-12-25T10:39:20.047Z,12.30
2022-12-25T10:42:05.770Z,12.40
2022-12-25T10:44:33.373Z,12.40
2022-12-25T10:47:02.029Z,12.40
2022-12-25T10:49:32.949Z,12.40
2022-12-25T10:52:00.208Z,12.40
2022-12-25T10:54:32.549Z,12.50
2022-12-25T10:57:00.901Z,12.50
2022-12-25T10:59:30.040Z,12.50
2022-12-25T11:02:04.437Z,12.50
2022-12-25T11:04:35.689Z,12.60
2022-12-25T11:07:15.048Z,12.60
2022-12-25T11:10:09.404Z,12.60
2022-12-25T11:12:41.771Z,12.60
2022-12-25T11:15:38.860Z,12.60
2022-12-25T11:18:20.716Z,12.60
2022-12-25T11:20:52.954Z,12.70
2022-12-25T11:23:21.829Z,12.70
2022-12-25T11:26:04.329Z,12.70
2022-12-25T11:28:34.373Z,12.70
2022-12-25T11:31:08.476Z,12.70
2022-12-25T11:33:36.706Z,12.80
2022-12-25T11:36:20.356Z,12.90
2022-12-25T11:38:47.399Z,12.90
2022-12-25T11:41:20.774Z,12.90
2022-12-25T11:43:54.295Z,12.90
2022-12-25T11:46:41.532Z,12.90
2022-12-25T11:49:14.947Z,12.90
2022-12-25T11:51:44.975Z,12.90
2022-12-25T11:54:22.486Z,12.80
2022-12-25T11:56:49.928Z,12.80
2022-12-25T11:59:20.813Z,12.80
2022-12-25T12:01:50.376Z,12.80
2022-12-25T12:04:41.954Z,12.80
2022-12-25T12:07:29.077Z,12.80
2022-12-25T12:10:18.255Z,12.90
2022-12-25T12:13:09.580Z,12.90
2022-12-25T12:15:48.495Z,12.90
2022-12-25T12:18:27.256Z,12.90
2022-12-25T12:21:28.741Z,12.90
2022-12-25T12:24:12.387Z,12.90
2022-12-25T12:26:42.532Z,13.00
2022-12-25T12:29:24.648Z,13.00
2022-12-25T12:31:52.615Z,13.00
2022-12-25T12:34:27.048Z,13.00
2022-12-25T12:37:05.170Z,13.00
2022-12-25T12:39:39.772Z,13.00
2022-12-25T12:42:23.512Z,13.10
2022-12-25T12:44:50.699Z,13.10
2022-12-25T12:47:40.967Z,13.10
2022-12-25T12:50:26.639Z,13.20
2022-12-25T12:52:53.851Z,13.20
2022-12-25T12:55:35.072Z,13.30
2022-12-25T12:58:05.814Z,13.30
2022-12-25T13:00:56.460Z,13.30
2022-12-25T13:03:51.173Z,13.40
2022-12-25T13:06:24.809Z,13.40
2022-12-25T13:09:20.858Z,13.40
2022-12-25T13:11:49.518Z,13.40
2022-12-25T13:14:21.919Z,13.40
2022-12-25T13:16:52.019Z,13.40
2022-12-25T13:19:22.292Z,13.50
2022-12-25T13:22:00.649Z,13.50
2022-12-25T13:24:30.680Z,13.50
2022-12-25T13:26:58.532Z,13.60
2022-12-25T13:29:37.281Z,13.60
2022-12-25T13:32:06.605Z,13.60
2022-12-25T13:34:38.502Z,13.60
2022-12-25T13:37:15.359Z,13.70
2022-12-25T13:40:05.142Z,13.70
2022-12-25T13:42:36.544Z,13.80
2022-12-25T13:45:19.292Z,13.80
2022-12-25T13:47:54.619Z,13.80
2022-12-25T13:50:24.901Z,13.90
2022-12-25T13:52:52.832Z,13.90
2022-12-25T13:55:30.563Z,13.90
2022-12-25T13:58:00.136Z,13.90
2022-12-25T14:00:40.425Z,13.90
2022-12-25T14:03:14.904Z,13.80
2022-12-25T14:05:43.581Z,13.80
2022-12-25T14:08:16.345Z,13.80
2022-12-25T14:10:47.570Z,13.70
2022-12-25T14:13:16.192Z,13.60
2022-12-25T14:15:53.576Z,13.60
2022-12-25T14:18:23.068Z,13.60
2022-12-25T14:21:04.450Z,13.60
2022-12-25T14:23:50.960Z,13.60
2022-12-25T14:26:20.425Z,13.60
2022-12-25T14:29:17.256Z,13.60
2022-12-25T14:31:47.479Z,13.60
2022-12-25T14:34:18.770Z,13.60
2022-12-25T14:36:45.912Z,13.60
2022-12-25T14:39:31.175Z,13.70
2022-12-25T14:41:58.391Z,13.70
2022-12-25T14:44:25.767Z,13.70
2022-12-25T14:47:13.087Z,13.70
2022-12-25T14:49:40.415Z,13.70
2022-12-25T14:52:19.264Z,13.70
2022-12-25T14:54:56.791Z,13.70
2022-12-25T14:57:54.275Z,13.70
2022-12-25T15:00:32.429Z,13.70
2022-12-25T15:03:00.749Z,13.70
2022-12-25T15:05:33.836Z,13.80
2022-12-25T15:08:07.082Z,13.70
2022-12-25T15:11:04.663Z,13.70
2022-12-25T15:13:22.076Z,13.70
2022-12-25T15:16:13.643Z,13.80
2022-12-25T15:18:43.660Z,13.80
2022-12-25T15:21:33.115Z,13.80
2022-12-25T15:24:00.471Z,13.80
2022-12-25T15:26:29.311Z,13.80
2022-12-25T15:28:56.246Z,13.80
2022-12-25T15:31:25.639Z,13.80
2022-12-25T15:33:56.570Z,13.80
2022-12-25T15:36:24.041Z,13.80
2022-12-25T15:38:51.466Z,13.80
2022-12-25T15:41:44.444Z,13.90
2022-12-25T15:44:12.321Z,13.90
2022-12-25T15:46:39.458Z,13.90
2022-12-25T15:49:06.349Z,13.90
2022-12-25T15:51:33.172Z,13.90
2022-12-25T15:53:59.916Z,13.90
2022-12-25T15:56:27.726Z,13.90
2022-12-25T15:58:54.464Z,14.00
2022-12-25T16:01:21.898Z,14.00
2022-12-25T16:03:49.686Z,14.00
2022-12-25T16:06:18.326Z,14.00
2022-12-25T16:08:45.931Z,14.00
2022-12-25T16:11:12.749Z,14.00
2022-12-25T16:13:39.507Z,14.00
2022-12-25T16:16:07.058Z,14.00
2022-12-25T16:18:34.164Z,14.00
2022-12-25T16:21:01.145Z,14.00
2022-12-25T16:23:27.924Z,14.10
2022-12-25T16:25:54.703Z,14.10
2022-12-25T16:28:21.430Z,14.10
2022-12-25T16:30:48.642Z,14.20
2022-12-25T16:33:15.613Z,14.20
2022-12-25T16:35:42.458Z,14.20
2022-12-25T16:38:09.328Z,14.20
2022-12-25T16:40:36.122Z,14.20
2022-12-25T16:43:03.089Z,14.30
2022-12-25T16:45:29.821Z,14.30
2022-12-25T16:47:57.429Z,14.20
2022-12-25T16:50:24.469Z,14.20
2022-12-25T16:52:51.398Z,14.20
2022-12-25T16:55:18.434Z,14.20
2022-12-25T16:57:47.794Z,14.20
2022-12-25T17:00:15.049Z,14.20
2022-12-25T17:02:42.140Z,14.20
2022-12-25T17:05:09.507Z,14.20
2022-12-25T17:07:37.627Z,14.20
2022-12-25T17:10:06.147Z,14.20
2022-12-25T17:12:34.119Z,14.20
2022-12-25T17:15:00.836Z,14.10
2022-12-25T17:17:27.557Z,14.10
2022-12-25T17:19:54.260Z,14.10
2022-12-25T17:22:21.210Z,14.20
2022-12-25T17:24:47.995Z,14.10
2022-12-25T17:27:14.827Z,14.10
2022-12-25T17:29:43.910Z,14.10
2022-12-25T17:32:12.575Z,14.10
2022-12-25T17:34:39.314Z,14.10
2022-12-25T17:37:06.657Z,14.10
2022-12-25T17:39:33.398Z,14.10
2022-12-25T17:42:00.143Z,14.00
2022-12-25T17:44:27.361Z,14.00
2022-12-25T17:46:54.148Z,14.00
2022-12-25T17:49:22.779Z,14.00
2022-12-25T17:51:49.801Z,13.90
2022-12-25T17:54:16.584Z,14.00
2022-12-25T17:56:43.298Z,14.00
2022-12-25T17:59:18.134Z,14.00
2022-12-25T18:01:46.416Z,14.00
2022-12-25T18:04:13.378Z,13.90
2022-12-25T18:06:40.319Z,13.90
2022-12-25T18:09:07.534Z,13.90
2022-12-25T18:11:37.679Z,13.90
2022-12-25T18:14:06.455Z,13.90
2022-12-25T18:16:35.741Z,13.90
2022-12-25T18:19:03.046Z,13.90
2022-12-25T18:21:30.053Z,13.90
2022-12-25T18:23:57.113Z,13.90
2022-12-25T18:26:25.108Z,13.90
2022-12-25T18:28:51.943Z,14.00
2022-12-25T18:31:24.705Z,13.90
2022-12-25T18:33:52.401Z,13.90
2022-12-25T18:36:21.598Z,13.90
2022-12-25T18:38:53.437Z,13.90
2022-12-25T18:41:21.094Z,13.90
2022-12-25T18:43:53.218Z,13.90
2022-12-25T18:46:24.231Z,13.80
2022-12-25T18:48:52.164Z,13.80
2022-12-25T18:51:19.095Z,13.80
2022-12-25T18:53:46.340Z,13.80
2022-12-25T18:56:18.150Z,13.80
2022-12-25T18:58:46.877Z,13.80
2022-12-25T19:01:24.235Z,13.80
2022-12-25T19:03:53.142Z,13.80
2022-12-25T19:06:25.898Z,13.80
2022-12-25T19:08:53.280Z,13.80
2022-12-25T19:11:20.669Z,13.70
2022-12-25T19:13:48.128Z,13.70
2022-12-25T19:16:15.501Z,13.70
2022-12-25T19:18:42.961Z,13.70
2022-12-25T19:21:10.135Z,13.70
2022-12-25T19:23:38.070Z,13.80
2022-12-25T19:26:06.282Z,13.70
2022-12-25T19:28:33.112Z,13.80
2022-12-25T19:31:00.332Z,13.80
2022-12-25T19:33:27.808Z,13.80
2022-12-25T19:35:58.676Z,13.70
2022-12-25T19:38:25.416Z,13.70
2022-12-25T19:41:01.426Z,13.70
2022-12-25T19:43:28.827Z,13.70
2022-12-25T19:45:55.691Z,13.70
2022-12-25T19:48:22.844Z,13.70
2022-12-25T19:50:50.462Z,13.70
2022-12-25T19:53:17.586Z,13.70
2022-12-25T19:55:45.036Z,13.70
2022-12-25T19:58:12.152Z,13.70
2022-12-25T20:00:40.474Z,13.80
2022-12-25T20:03:08.332Z,13.80
2022-12-25T20:05:35.351Z,13.90
2022-12-25T20:08:02.537Z,13.90
2022-12-25T20:10:29.359Z,13.90
2022-12-25T20:12:56.106Z,13.90
2022-12-25T20:15:22.836Z,13.90
2022-12-25T20:17:49.590Z,13.80
2022-12-25T20:20:16.356Z,13.90
2022-12-25T20:22:43.104Z,13.80
2022-12-25T20:25:11.119Z,13.80
2022-12-25T20:27:37.934Z,13.80
2022-12-25T20:30:05.251Z,13.80
2022-12-25T20:32:31.973Z,13.80
2022-12-25T20:34:58.679Z,13.80
2022-12-25T20:37:25.510Z,13.80
2022-12-25T20:39:52.289Z,13.80
2022-12-25T20:42:19.610Z,13.80
2022-12-25T20:44:46.361Z,13.80
2022-12-25T20:47:13.142Z,13.80
2022-12-25T20:49:39.856Z,13.80
2022-12-25T20:52:06.727Z,13.70
2022-12-25T20:54:33.801Z,13.70
2022-12-25T20:57:00.543Z,13.70
2022-12-25T20:59:29.779Z,13.70
2022-12-25T21:02:00.607Z,13.70
2022-12-25T21:04:42.023Z,13.70
2022-12-25T21:07:08.837Z,13.80
2022-12-25T21:09:35.720Z,13.70
2022-12-25T21:12:02.507Z,13.70
2022-12-25T21:14:29.709Z,13.70
2022-12-25T21:16:56.591Z,13.70
2022-12-25T21:19:26.520Z,13.70
2022-12-25T21:21:53.258Z,13.70
2022-12-25T21:24:20.951Z,13.70
2022-12-25T21:26:48.326Z,13.70
2022-12-25T21:29:16.075Z,13.70
2022-12-25T21:32:01.591Z,13.60
2022-12-25T21:34:30.637Z,13.60
2022-12-25T21:36:57.409Z,13.60
2022-12-25T21:39:24.157Z,13.60
2022-12-25T21:41:52.660Z,13.60
2022-12-25T21:44:19.527Z,13.60
2022-12-25T21:46:49.375Z,13.60
2022-12-25T21:49:36.171Z,13.60
2022-12-25T21:52:08.635Z,13.60
2022-12-25T21:54:38.573Z,13.60
2022-12-25T21:57:05.362Z,13.70
2022-12-25T21:59:32.096Z,13.60
2022-12-25T22:01:59.623Z,13.60
2022-12-25T22:04:26.762Z,13.60
2022-12-25T22:07:12.039Z,13.70
2022-12-25T22:09:38.976Z,13.70
2022-12-25T22:12:30.128Z,13.70
2022-12-25T22:15:03.101Z,13.70
2022-12-25T22:17:57.266Z,13.70
2022-12-25T22:20:31.478Z,13.70
2022-12-25T22:22:58.754Z,13.70
2022-12-25T22:25:26.005Z,13.70
2022-12-25T22:27:53.176Z,13.70
2022-12-25T22:30:23.220Z,13.70
2022-12-25T22:32:50.504Z,13.70
2022-12-25T22:35:17.704Z,13.70
2022-12-25T22:37:45.379Z,13.70
2022-12-25T22:40:15.211Z,13.70
2022-12-25T22:42:42.495Z,13.70
2022-12-25T22:45:09.886Z,13.70
2022-12-25T22:47:36.637Z,13.80
2022-12-25T22:50:03.899Z,13.70
2022-12-25T22:52:30.712Z,13.70
2022-12-25T22:54:57.465Z,13.70
2022-12-25T22:57:24.341Z,13.70
2022-12-25T22:59:53.889Z,13.60
2022-12-25T23:02:21.388Z,13.60
2022-12-25T23:04:48.473Z,13.60
2022-12-25T23:07:15.694Z,13.50
2022-12-25T23:09:43.517Z,13.50
2022-12-25T23:12:30.828Z,13.50
2022-12-25T23:14:57.846Z,13.50
2022-12-25T23:17:44.197Z,13.50
2022-12-25T23:20:33.264Z,13.50
2022-12-25T23:23:19.136Z,13.50
2022-12-25T23:26:04.501Z,13.50
2022-12-25T23:28:50.092Z,13.50
2022-12-25T23:31:17.180Z,13.50
2022-12-25T23:33:44.009Z,13.50
2022-12-25T23:36:10.839Z,13.60
2022-12-25T23:38:37.643Z,13.60
2022-12-25T23:41:04.441Z,13.70
2022-12-25T23:43:31.193Z,13.60
2022-12-25T23:45:58.011Z,13.70
2022-12-25T23:48:24.738Z,13.70
2022-12-25T23:50:51.552Z,13.70
2022-12-25T23:53:18.368Z,13.70
2022-12-25T23:55:50.050Z,13.60
2022-12-25T23:58:20.234Z,13.70
